Time;durP1;ratioP1;P1;durP2;ratioP2;P2;SDS_P1;SDS_P2;PMS_P1;PMS_P2;Temp;Humidity;BMP_temperature;BMP_pressure;BME280_temperature;BME280_humidity;BME280_pressure;Samples;Min_cycle;Max_cycle;Signal;HPM_P1;HPM_P2
2022/09/04 00:01:28;;;;;;;9.98;9.07;;;;;;;16.14;64.58;100728.13;4926625;29;20044;-74
2022/09/04 00:04:39;;;;;;;10.35;9.07;;;;;;;16.07;65.43;100732.72;4925550;29;20032;-74
2022/09/04 00:07:26;;;;;;;10.57;9.32;;;;;;;16.01;65.96;100730.22;4923846;29;20565;-74
2022/09/04 00:10:18;;;;;;;12.50;9.05;;;;;;;15.92;66.22;100736.63;4930418;29;20131;-74
2022/09/04 00:13:01;;;;;;;9.55;8.70;;;;;;;15.87;66.23;100738.53;4927526;29;20043;-74
2022/09/04 00:15:33;;;;;;;10.07;9.07;;;;;;;15.84;65.81;100738.63;4927074;29;20083;-74
2022/09/04 00:18:25;;;;;;;12.57;8.82;;;;;;;15.83;66.25;100738.69;4925039;29;20048;-74
2022/09/04 00:21:03;;;;;;;10.38;9.38;;;;;;;15.81;66.69;100736.03;4927021;29;20130;-74
2022/09/04 00:23:39;;;;;;;10.57;9.68;;;;;;;15.82;66.69;100739.56;4927076;29;20098;-74
2022/09/04 00:26:24;;;;;;;10.88;9.77;;;;;;;15.85;67.01;100739.50;4926789;29;20099;-74
2022/09/04 00:28:54;;;;;;;11.02;9.23;;;;;;;15.84;66.90;100735.09;4928459;29;20043;-74
2022/09/04 00:31:37;;;;;;;10.60;9.60;;;;;;;15.87;67.70;100732.34;4926816;29;20495;-74
2022/09/04 00:34:36;;;;;;;9.98;8.98;;;;;;;15.89;67.80;100749.16;4923968;29;20038;-74
2022/09/04 00:37:05;;;;;;;10.30;9.40;;;;;;;15.90;67.10;100742.91;4926320;29;20043;-74
2022/09/04 00:39:36;;;;;;;10.00;9.05;;;;;;;15.91;67.31;100745.56;4928070;29;20131;-74
2022/09/04 00:42:39;;;;;;;10.40;9.25;;;;;;;15.93;67.89;100746.41;4927894;29;20038;-74
2022/09/04 00:45:26;;;;;;;11.93;9.13;;;;;;;15.94;67.55;100750.78;4930750;29;20418;-74
2022/09/04 00:48:30;;;;;;;10.75;9.30;;;;;;;15.94;67.37;100744.59;4926136;29;20104;-74
2022/09/04 00:51:10;;;;;;;9.48;8.57;;;;;;;15.95;67.38;100752.53;4930667;29;20051;-74
2022/09/04 00:54:05;;;;;;;10.05;9.18;;;;;;;15.95;67.84;100749.00;4925956;29;20055;-74
2022/09/04 00:56:42;;;;;;;10.20;9.13;;;;;;;15.95;67.47;100751.66;4927459;29;20394;-74
2022/09/04 00:59:23;;;;;;;10.82;9.82;;;;;;;15.96;67.79;100742.78;4925344;29;20123;-74
2022/09/04 01:01:55;;;;;;;12.35;8.95;;;;;;;15.97;67.96;100747.19;4924539;29;20048;-74
2022/09/04 01:04:30;;;;;;;10.43;9.63;;;;;;;16.02;67.99;100752.41;4925796;29;20039;-74
2022/09/04 01:07:22;;;;;;;11.68;9.32;;;;;;;16.04;68.46;100756.78;4927433;29;20394;-74
2022/09/04 01:10:18;;;;;;;11.57;10.07;;;;;;;16.09;68.16;100760.19;4924456;29;20550;-74
2022/09/04 01:13:02;;;;;;;10.98;9.82;;;;;;;16.05;68.33;100753.19;4925039;29;20040;-73
2022/09/04 01:15:40;;;;;;;10.32;9.32;;;;;;;16.07;68.04;100756.69;4924426;29;20526;-74
2022/09/04 01:18:37;;;;;;;10.65;9.45;;;;;;;16.08;68.71;100761.09;4929828;29;20406;-74
2022/09/04 01:21:40;;;;;;;12.50;10.05;;;;;;;16.05;68.43;100762.97;4929791;29;20039;-73
2022/09/04 01:24:15;;;;;;;11.25;10.15;;;;;;;16.00;68.05;100760.41;4925693;29;20040;-74
2022/09/04 01:27:01;;;;;;;9.98;8.98;;;;;;;16.00;68.40;100768.41;4923959;29;20040;-73
2022/09/04 01:29:46;;;;;;;9.57;8.68;;;;;;;15.97;68.46;100765.81;4923749;29;20039;-73
2022/09/04 01:32:34;;;;;;;12.77;9.65;;;;;;;15.96;68.68;100769.41;4926069;29;20143;-73
2022/09/04 01:35:11;;;;;;;10.40;9.43;;;;;;;15.95;68.54;100776.47;4926128;29;20045;-73
2022/09/04 01:37:50;;;;;;;10.70;8.77;;;;;;;15.98;69.25;100772.88;4926846;29;20048;-73
2022/09/04 01:40:32;;;;;;;11.32;10.23;;;;;;;15.95;69.70;100784.47;4928889;29;20506;-73
2022/09/04 01:43:05;;;;;;;10.35;9.35;;;;;;;15.96;69.71;100780.06;4929581;29;20048;-73
2022/09/04 01:45:54;;;;;;;10.57;9.45;;;;;;;16.03;69.93;100780.75;4926757;29;20040;-73
2022/09/04 01:48:52;;;;;;;12.75;10.40;;;;;;;16.08;69.38;100769.06;4926681;29;20383;-73
2022/09/04 01:51:42;;;;;;;11.23;10.23;;;;;;;16.14;69.31;100776.06;4930548;29;20035;-73
2022/09/04 01:54:22;;;;;;;10.63;9.50;;;;;;;16.17;69.16;100774.19;4928325;29;20042;-73
2022/09/04 01:57:07;;;;;;;10.00;8.73;;;;;;;16.20;69.08;100778.56;4923477;29;20044;-72
2022/09/04 01:59:43;;;;;;;9.85;8.88;;;;;;;16.19;69.35;100772.38;4923421;29;20526;-74
2022/09/04 02:02:19;;;;;;;13.35;9.95;;;;;;;16.19;69.24;100776.78;4924419;29;20032;-74
2022/09/04 02:05:00;;;;;;;10.30;9.35;;;;;;;16.16;69.09;100774.22;4923340;29;20063;-73
2022/09/04 02:07:45;;;;;;;12.02;9.68;;;;;;;16.12;69.75;100765.44;4924235;29;20044;-74
2022/09/04 02:10:24;;;;;;;10.75;9.65;;;;;;;16.08;69.56;100769.06;4924918;29;20051;-73
2022/09/04 02:13:07;;;;;;;11.35;9.95;;;;;;;16.03;70.01;100770.09;4923321;29;20091;-74
2022/09/04 02:15:41;;;;;;;12.00;9.30;;;;;;;15.96;70.04;100767.59;4923223;29;20052;-73
2022/09/04 02:18:16;;;;;;;11.50;9.48;;;;;;;15.95;69.91;100767.63;4924095;29;20051;-74
2022/09/04 02:21:06;;;;;;;10.60;9.50;;;;;;;15.95;70.63;100762.31;4926811;29;20058;-73
2022/09/04 02:24:03;;;;;;;13.50;10.02;;;;;;;15.92;71.37;100760.59;4926017;29;20047;-74
2022/09/04 02:26:44;;;;;;;13.48;11.10;;;;;;;15.88;70.87;100771.38;4922947;29;20062;-74
2022/09/04 02:29:27;;;;;;;10.95;9.77;;;;;;;15.81;71.99;100773.28;4923167;29;20039;-73
2022/09/04 02:32:09;;;;;;;11.90;10.68;;;;;;;15.80;70.90;100783.97;4924768;29;20048;-74
2022/09/04 02:34:56;;;;;;;12.60;10.13;;;;;;;15.76;70.85;100792.03;4924263;29;20043;-74
2022/09/04 02:37:33;;;;;;;11.52;10.38;;;;;;;15.72;70.97;100802.81;4926943;29;20043;-74
2022/09/04 02:40:23;;;;;;;11.00;9.90;;;;;;;15.67;71.08;100804.66;4926479;29;20036;-73
2022/09/04 02:43:34;;;;;;;12.20;10.05;;;;;;;15.61;72.33;100804.78;4925571;29;20032;-73
2022/09/04 02:46:14;;;;;;;11.15;10.15;;;;;;;15.52;71.48;100805.88;4924023;29;20483;-74
2022/09/04 02:48:56;;;;;;;10.63;9.40;;;;;;;15.53;72.02;100818.25;4926768;29;20032;-73
2022/09/04 02:51:51;;;;;;;11.65;10.55;;;;;;;15.49;73.42;100814.78;4923451;29;20047;-73
2022/09/04 02:54:49;;;;;;;10.45;9.48;;;;;;;15.45;72.74;100821.06;4923552;29;20491;-74
2022/09/04 02:57:42;;;;;;;9.80;8.93;;;;;;;15.52;72.23;100811.19;4926356;29;20039;-74
2022/09/04 03:00:16;;;;;;;10.90;9.98;;;;;;;15.57;71.65;100809.31;4926350;29;20047;-74
2022/09/04 03:03:02;;;;;;;10.85;9.70;;;;;;;15.54;73.20;100810.25;4924124;29;20589;-74
2022/09/04 03:05:48;;;;;;;11.30;9.95;;;;;;;15.52;72.71;100808.53;4928433;29;20051;-74
2022/09/04 03:08:42;;;;;;;11.13;10.02;;;;;;;15.54;72.38;100804.94;4929606;29;20032;-74
2022/09/04 03:11:20;;;;;;;11.05;9.50;;;;;;;15.54;72.02;100809.38;4926376;29;20036;-74
2022/09/04 03:13:52;;;;;;;13.07;10.52;;;;;;;15.56;71.91;100816.41;4927333;29;20044;-74
2022/09/04 03:16:23;;;;;;;10.55;9.35;;;;;;;15.58;71.90;100816.34;4929945;29;20060;-74
2022/09/04 03:18:54;;;;;;;10.73;9.68;;;;;;;15.58;72.35;100816.34;4928071;29;20036;-74
2022/09/04 03:21:31;;;;;;;11.20;9.88;;;;;;;15.63;72.08;100818.94;4929175;29;20495;-74
2022/09/04 03:24:19;;;;;;;9.80;8.93;;;;;;;15.64;72.04;100816.25;4926978;29;20035;-74
2022/09/04 03:26:51;;;;;;;10.50;9.60;;;;;;;15.65;71.77;100820.66;4926890;29;20058;-74
2022/09/04 03:29:41;;;;;;;14.52;9.70;;;;;;;15.62;72.24;100818.06;4926881;29;20078;-73
2022/09/04 03:32:18;;;;;;;14.20;10.65;;;;;;;15.63;71.52;100809.16;4927954;29;20058;-74
2022/09/04 03:34:55;;;;;;;11.10;9.95;;;;;;;15.63;71.83;100805.63;4926846;29;20044;-74
2022/09/04 03:37:48;;;;;;;14.17;10.23;;;;;;;15.60;72.20;100806.56;4926393;29;20491;-73
2022/09/04 03:40:32;;;;;;;10.95;9.73;;;;;;;15.53;72.17;100812.91;4929184;29;20548;-73
2022/09/04 03:43:19;;;;;;;11.85;9.77;;;;;;;15.48;72.38;100809.50;4928130;29;20044;-74
2022/09/04 03:46:00;;;;;;;12.98;9.38;;;;;;;15.45;72.65;100818.41;4928124;29;20039;-74
2022/09/04 03:48:49;;;;;;;12.27;10.50;;;;;;;15.43;72.79;100812.28;4926810;29;20131;-74
2022/09/04 03:51:37;;;;;;;11.13;10.00;;;;;;;15.40;72.84;100808.78;4928618;29;20040;-74
2022/09/04 03:54:24;;;;;;;10.65;9.65;;;;;;;15.36;73.12;100797.34;4926675;29;20131;-73
2022/09/04 03:57:05;;;;;;;11.50;10.40;;;;;;;15.34;73.24;100804.47;4925675;29;20044;-73
2022/09/04 03:59:38;;;;;;;12.13;10.50;;;;;;;15.32;72.79;100814.25;4929134;29;20130;-74
2022/09/04 04:02:35;;;;;;;10.27;9.27;;;;;;;15.31;73.63;100818.72;4926420;29;20048;-73
2022/09/04 04:05:27;;;;;;;12.45;10.85;;;;;;;15.30;73.46;100818.72;4927627;29;20039;-74
2022/09/04 04:08:35;;;;;;;11.40;10.30;;;;;;;15.23;73.86;100820.66;4927602;29;20039;-74
2022/09/04 04:11:29;;;;;;;12.15;10.32;;;;;;;15.17;73.54;100826.13;4924894;29;20031;-73
2022/09/04 04:14:19;;;;;;;10.88;9.88;;;;;;;15.15;73.35;100825.25;4930263;29;20043;-74
2022/09/04 04:17:01;;;;;;;11.32;10.20;;;;;;;15.10;73.68;100828.00;4927090;29;20495;-73
2022/09/04 04:20:04;;;;;;;13.15;10.43;;;;;;;15.02;74.16;100826.41;4925998;29;20040;-74
2022/09/04 04:22:56;;;;;;;11.60;10.40;;;;;;;14.97;74.29;100833.59;4931109;29;20043;-73
2022/09/04 04:25:55;;;;;;;11.52;9.65;;;;;;;14.87;74.74;100838.22;4925297;29;20175;-74
2022/09/04 04:28:58;;;;;;;11.70;10.52;;;;;;;14.80;74.99;100833.91;4925510;29;20028;-74
2022/09/04 04:31:39;;;;;;;13.77;9.70;;;;;;;14.73;75.28;100835.81;4927225;29;20048;-74
2022/09/04 04:34:07;;;;;;;11.88;10.73;;;;;;;14.66;75.54;100843.00;4926339;29;20044;-74
2022/09/04 04:36:51;;;;;;;11.93;10.18;;;;;;;14.64;75.58;100846.59;4925867;29;20063;-74
2022/09/04 04:39:29;;;;;;;11.45;10.00;;;;;;;14.62;75.60;100848.44;4926369;29;20404;-74
2022/09/04 04:42:12;;;;;;;14.98;10.32;;;;;;;14.56;76.13;100853.81;4926243;29;20123;-73
2022/09/04 04:47:55;;;;;;;12.85;10.45;;;;;;;14.46;76.70;100861.94;4933856;29;20040;-73
2022/09/04 04:50:39;;;;;;;11.48;10.38;;;;;;;14.46;76.38;100863.69;4924394;29;20040;-74
2022/09/04 04:53:18;;;;;;;12.52;11.25;;;;;;;14.44;76.61;100860.22;4927028;29;20077;-74
2022/09/04 04:55:52;;;;;;;11.70;9.95;;;;;;;14.39;77.25;100860.28;4925980;29;20040;-74
2022/09/04 04:58:31;;;;;;;14.15;10.00;;;;;;;14.39;77.23;100873.56;4929339;29;20123;-73
2022/09/04 05:01:31;;;;;;;15.25;10.70;;;;;;;14.38;77.87;100874.47;4929380;29;20031;-73
2022/09/04 05:04:09;;;;;;;14.77;9.60;;;;;;;14.37;77.81;100874.47;4928583;29;20107;-73
2022/09/04 05:07:05;;;;;;;13.55;10.63;;;;;;;14.41;78.27;100871.75;4929848;29;20126;-74
2022/09/04 05:09:50;;;;;;;10.85;9.73;;;;;;;14.44;77.70;100877.00;4932141;29;20490;-74
2022/09/04 05:12:48;;;;;;;13.68;11.00;;;;;;;14.50;77.50;100883.13;4930440;29;20046;-74
2022/09/04 05:15:38;;;;;;;11.27;10.13;;;;;;;14.55;77.61;100883.97;4930235;29;20099;-74
2022/09/04 05:18:14;;;;;;;12.50;10.35;;;;;;;14.60;77.29;100893.59;4929863;29;20032;-74
2022/09/04 05:20:51;;;;;;;11.52;10.38;;;;;;;14.68;77.77;100902.31;4927582;29;20040;-74
2022/09/04 05:23:26;;;;;;;14.60;11.48;;;;;;;14.81;77.33;100899.44;4930442;29;20035;-74
2022/09/04 05:26:09;;;;;;;11.80;10.57;;;;;;;15.01;76.75;100907.03;4931339;29;20071;-74
2022/09/04 05:28:53;;;;;;;12.50;11.20;;;;;;;15.23;76.05;100902.22;4924664;29;20047;-74
2022/09/04 05:31:47;;;;;;;12.82;10.32;;;;;;;15.44;75.62;100904.44;4923648;29;20051;-74
2022/09/04 05:34:34;;;;;;;11.77;10.65;;;;;;;15.68;74.38;100900.38;4926082;29;20049;-74
2022/09/04 05:37:32;;;;;;;18.58;11.60;;;;;;;15.82;73.71;100904.56;4929487;29;20062;-74
2022/09/04 05:40:05;;;;;;;11.73;10.70;;;;;;;15.90;73.05;100911.50;4929182;29;20495;-74
2022/09/04 05:42:37;;;;;;;12.98;11.57;;;;;;;15.96;72.90;100918.47;4930419;29;20050;-74
2022/09/04 05:45:40;;;;;;;13.38;10.65;;;;;;;16.07;72.14;100905.78;4928038;29;20039;-74
2022/09/04 05:48:08;;;;;;;;;;;;;;;16.19;71.25;100920.59;4932837;29;20047;-75
2022/09/04 05:51:01;;;;;;;12.63;10.43;;;;;;;16.25;71.03;100924.91;4936759;29;19915;-74
2022/09/04 05:54:02;;;;;;;12.48;10.00;;;;;;;16.32;70.81;100937.16;4923635;29;20036;-74
2022/09/04 05:57:03;;;;;;;12.20;10.90;;;;;;;16.38;70.72;100935.25;4925674;29;20481;-74
2022/09/04 05:59:44;;;;;;;12.13;10.68;;;;;;;16.45;70.02;100949.28;4925750;29;20044;-74
2022/09/04 06:02:52;;;;;;;12.38;10.70;;;;;;;16.44;69.94;100948.41;4929983;29;20039;-74
2022/09/04 06:05:28;;;;;;;11.38;10.18;;;;;;;16.51;69.92;100951.81;4926217;29;20038;-74
2022/09/04 06:07:53;;;;;;;11.70;10.60;;;;;;;16.51;69.52;100957.16;4925320;29;20063;-74
2022/09/04 06:10:27;;;;;;;11.95;10.60;;;;;;;16.53;69.23;100959.75;4929578;29;20071;-74
2022/09/04 06:13:16;;;;;;;11.52;10.38;;;;;;;16.55;69.34;100958.81;4922371;29;20463;-74
2022/09/04 06:16:07;;;;;;;12.68;11.48;;;;;;;16.55;69.35;100956.13;4928418;29;20054;-74
2022/09/04 06:18:57;;;;;;;13.88;10.85;;;;;;;16.59;69.35;100960.50;4928886;29;20044;-74
2022/09/04 06:21:50;;;;;;;12.02;10.90;;;;;;;16.67;69.31;100964.78;4929713;29;21564;-74
2022/09/04 06:24:36;;;;;;;;;;;;;;;16.71;68.97;100966.44;4930537;29;20036;-74
2022/09/04 06:27:23;;;;;;;12.70;11.40;;;;;;;16.87;68.59;100970.50;4926245;29;19922;-74
2022/09/04 06:30:12;;;;;;;12.27;11.13;;;;;;;17.04;68.00;100965.63;4935852;29;20407;-74
2022/09/04 06:33:12;;;;;;;12.63;11.13;;;;;;;17.16;67.71;100974.19;4939815;29;20474;-74
2022/09/04 06:36:09;;;;;;;12.85;11.55;;;;;;;17.26;66.94;100970.38;4943948;28;20054;-74
2022/09/04 06:38:55;;;;;;;12.35;11.10;;;;;;;17.35;66.67;100975.47;4942497;29;20036;-75
2022/09/04 06:41:37;;;;;;;12.35;11.00;;;;;;;17.41;66.31;100980.63;4944418;29;20078;-74
2022/09/04 06:44:25;;;;;;;12.43;11.20;;;;;;;17.39;66.26;100978.94;4943387;29;20161;-74
2022/09/04 06:47:04;;;;;;;12.90;11.70;;;;;;;17.38;66.46;100990.53;4942219;29;20035;-74
2022/09/04 06:49:58;;;;;;;11.75;10.55;;;;;;;17.32;66.37;100983.56;4942842;29;20028;-73
2022/09/04 06:52:37;;;;;;;12.60;11.27;;;;;;;17.15;66.80;100977.78;4956041;28;20133;-74
2022/09/04 06:55:16;;;;;;;12.00;10.77;;;;;;;17.01;66.95;100981.69;4934895;29;20517;-75
2022/09/04 06:58:04;;;;;;;12.00;10.88;;;;;;;17.02;67.41;100986.09;4940930;29;20040;-74
2022/09/04 07:00:38;;;;;;;12.68;11.48;;;;;;;17.04;67.31;100978.94;4945485;28;20039;-74
2022/09/04 07:03:24;;;;;;;12.73;11.60;;;;;;;17.04;67.62;100976.28;4938307;29;20046;-74
2022/09/04 07:06:03;;;;;;;12.77;11.57;;;;;;;17.02;67.60;100983.44;4944216;29;20047;-74
2022/09/04 07:08:55;;;;;;;14.63;10.73;;;;;;;17.02;68.13;100986.09;4942441;28;20035;-74
2022/09/04 07:11:42;;;;;;;12.52;11.23;;;;;;;17.08;67.80;100988.63;4916419;28;20051;-74
2022/09/04 07:14:26;;;;;;;12.02;10.88;;;;;;;17.12;67.85;100993.88;4944805;28;20031;-74
2022/09/04 07:17:13;;;;;;;12.48;11.27;;;;;;;17.15;68.25;101000.00;4937059;29;20039;-74
2022/09/04 07:20:15;;;;;;;10.95;9.95;;;;;;;17.27;68.02;100998.81;4926548;29;20091;-74
2022/09/04 07:22:52;;;;;;;13.27;11.55;;;;;;;17.39;67.40;100997.59;4929590;29;20048;-74
2022/09/04 07:25:45;;;;;;;12.00;10.80;;;;;;;17.44;67.07;100999.22;4928732;29;20040;-74
2022/09/04 07:28:29;;;;;;;11.98;10.88;;;;;;;17.49;67.20;100997.31;4923828;29;20115;-74
2022/09/04 07:31:19;;;;;;;14.88;11.25;;;;;;;17.60;66.38;100998.81;4934964;29;20094;-74
2022/09/04 07:33:50;;;;;;;12.82;11.60;;;;;;;17.65;66.34;101000.44;4929710;29;20513;-74
2022/09/04 07:36:37;;;;;;;12.07;10.95;;;;;;;17.71;66.05;101002.03;4934031;29;20035;-74
2022/09/04 07:39:29;;;;;;;12.63;11.50;;;;;;;17.83;65.92;101006.22;4933019;29;20610;-74
2022/09/04 07:42:03;;;;;;;12.63;9.82;;;;;;;17.95;65.30;101006.72;4931544;29;20051;-74
2022/09/04 07:44:38;;;;;;;13.90;11.55;;;;;;;18.10;64.66;101012.53;4932274;29;20067;-74
2022/09/04 07:47:13;;;;;;;11.40;10.27;;;;;;;18.16;64.73;101012.38;4931675;29;20554;-74
2022/09/04 07:49:51;;;;;;;11.63;10.50;;;;;;;18.26;64.53;101013.84;4930849;29;20055;-75
2022/09/04 07:52:41;;;;;;;12.98;11.80;;;;;;;18.34;63.81;101016.28;4928458;29;20118;-74
2022/09/04 07:55:37;;;;;;;11.70;10.63;;;;;;;18.42;63.78;101018.69;4928438;29;20039;-74
2022/09/04 07:58:44;;;;;;;13.20;11.77;;;;;;;18.57;63.14;101028.91;4925516;29;20055;-75
2022/09/04 08:01:35;;;;;;;12.05;10.82;;;;;;;18.75;62.76;101028.34;4927618;29;20380;-74
2022/09/04 08:04:42;;;;;;;12.20;10.65;;;;;;;18.87;61.81;101035.13;4925673;29;20426;-74
2022/09/04 08:07:19;;;;;;;12.60;11.18;;;;;;;18.92;61.63;101032.31;4926842;29;20110;-74
2022/09/04 08:10:10;;;;;;;12.30;10.93;;;;;;;18.99;61.50;101032.06;4925819;29;20044;-74
2022/09/04 08:12:55;;;;;;;15.18;11.48;;;;;;;19.09;61.24;101029.94;4924899;29;20043;-74
2022/09/04 08:15:41;;;;;;;11.48;10.38;;;;;;;19.21;61.09;101032.19;4925353;29;20051;-75
2022/09/04 08:18:46;;;;;;;11.82;10.65;;;;;;;19.28;60.86;101024.81;4929268;29;20376;-74
2022/09/04 08:21:41;;;;;;;12.10;10.90;;;;;;;19.37;60.75;101032.53;4930717;29;20102;-74
2022/09/04 08:24:09;;;;;;;11.13;10.13;;;;;;;19.54;60.46;101028.41;4922222;29;20048;-74
2022/09/04 08:26:51;;;;;;;11.93;10.82;;;;;;;19.68;59.44;101032.38;4925601;29;20043;-75
2022/09/04 08:29:30;;;;;;;11.38;10.38;;;;;;;19.73;58.22;101025.97;4931198;29;20075;-75
2022/09/04 08:32:17;;;;;;;11.18;10.07;;;;;;;19.78;57.91;101037.38;4929034;29;20410;-74
2022/09/04 08:35:06;;;;;;;12.63;9.93;;;;;;;19.85;58.38;101038.91;4928095;29;20075;-75
2022/09/04 08:37:51;;;;;;;11.38;10.40;;;;;;;20.00;57.88;101043.72;4931239;29;20502;-74
2022/09/04 08:40:35;;;;;;;10.98;9.98;;;;;;;20.17;58.62;101039.53;4928468;29;20519;-75
2022/09/04 08:43:28;;;;;;;11.85;10.63;;;;;;;20.31;57.36;101026.47;4930825;29;20118;-75
2022/09/04 08:46:12;;;;;;;11.32;10.18;;;;;;;20.39;58.04;101028.88;4932672;29;20042;-74
2022/09/04 08:49:15;;;;;;;12.25;11.13;;;;;;;20.45;56.62;101031.28;4931354;29;20125;-73
2022/09/04 08:52:17;;;;;;;11.63;10.55;;;;;;;20.58;56.75;101030.78;4928914;29;20035;-75
2022/09/04 08:55:04;;;;;;;12.48;11.48;;;;;;;20.64;56.84;101035.00;4929483;29;20135;-75
2022/09/04 08:57:53;;;;;;;11.57;10.57;;;;;;;20.75;56.11;101043.53;4931348;29;20051;-75
2022/09/04 09:00:20;;;;;;;12.15;11.05;;;;;;;20.78;55.81;101035.34;4926451;29;20136;-74
2022/09/04 09:03:14;;;;;;;11.88;10.77;;;;;;;20.89;56.00;101042.09;4925092;29;20051;-74
2022/09/04 09:06:11;;;;;;;12.00;11.00;;;;;;;21.01;55.07;101055.88;4925974;29;20489;-75
2022/09/04 09:08:54;;;;;;;13.10;12.05;;;;;;;20.96;54.50;101057.88;4929455;29;20028;-74
2022/09/04 09:11:20;;;;;;;11.90;10.95;;;;;;;20.98;54.35;101050.63;4922989;29;20039;-75
2022/09/04 09:14:23;;;;;;;11.32;10.32;;;;;;;21.13;54.30;101067.03;4926500;29;20051;-74
2022/09/04 09:17:15;;;;;;;12.18;11.18;;;;;;;21.36;53.87;101060.69;4928153;29;20091;-74
2022/09/04 09:20:23;;;;;;;11.60;10.63;;;;;;;21.49;53.13;101056.59;4927887;29;20047;-75
2022/09/04 09:23:09;;;;;;;12.25;11.25;;;;;;;21.62;52.33;101059.63;4913231;29;20511;-74
2022/09/04 09:26:05;;;;;;;11.82;10.90;;;;;;;21.70;52.71;101059.28;4927000;29;20058;-74
2022/09/04 09:28:58;;;;;;;12.52;11.50;;;;;;;21.84;52.34;101052.34;4924502;29;20035;-75
2022/09/04 09:31:59;;;;;;;12.38;11.27;;;;;;;21.84;51.68;101046.97;4928386;29;20169;-74
2022/09/04 09:34:45;;;;;;;11.90;11.00;;;;;;;21.96;51.95;101044.69;4922272;29;20035;-75
2022/09/04 09:37:42;;;;;;;10.95;10.00;;;;;;;22.09;50.93;101046.72;4926596;29;20479;-75
2022/09/04 09:40:25;;;;;;;11.55;10.57;;;;;;;22.24;50.98;101046.97;4941519;29;20187;-74
2022/09/04 09:43:14;;;;;;;11.75;10.85;;;;;;;22.29;50.31;101042.25;4925523;29;20050;-75
2022/09/04 09:45:56;;;;;;;12.68;11.00;;;;;;;22.39;49.72;101038.19;4926438;29;20040;-75
2022/09/04 09:48:36;;;;;;;;;;;;;;;22.49;48.90;101039.50;4928875;29;20039;-75
2022/09/04 09:51:40;;;;;;;11.65;10.60;;;;;;;22.62;49.08;101036.25;4932203;29;20337;-74
2022/09/04 09:54:29;;;;;;;11.77;10.77;;;;;;;22.69;49.52;101033.19;4923848;29;20036;-75
2022/09/04 09:57:28;;;;;;;12.13;11.13;;;;;;;22.84;49.46;101033.38;4924089;29;20110;-74
2022/09/04 10:00:08;;;;;;;11.65;10.75;;;;;;;22.99;49.73;101026.38;4927343;29;20080;-74
2022/09/04 10:03:00;;;;;;;14.52;11.15;;;;;;;23.14;48.71;101023.78;4922833;29;20138;-74
2022/09/04 10:05:56;;;;;;;12.40;10.82;;;;;;;23.21;48.16;101031.53;4923396;29;20098;-75
2022/09/04 10:08:35;;;;;;;12.80;11.57;;;;;;;23.37;47.27;101028.00;4923277;29;20032;-75
2022/09/04 10:11:22;;;;;;;11.63;10.52;;;;;;;23.49;47.35;101023.78;4923665;29;20048;-75
2022/09/04 10:14:03;;;;;;;12.82;11.80;;;;;;;23.62;47.44;101030.28;4925275;29;20496;-75
2022/09/04 10:16:59;;;;;;;12.38;11.35;;;;;;;23.77;47.11;101019.69;4924588;29;20035;-75
2022/09/04 10:19:50;;;;;;;13.15;12.15;;;;;;;23.81;46.02;101024.81;4927748;29;20040;-75
2022/09/04 10:22:36;;;;;;;12.00;10.90;;;;;;;23.94;45.63;101027.72;4926045;29;20052;-75
2022/09/04 10:25:38;;;;;;;13.38;12.40;;;;;;;24.16;44.81;101024.72;4923480;29;20040;-75
2022/09/04 10:28:15;;;;;;;;;;;;;;;24.37;44.99;101019.97;4926145;29;20102;-75
2022/09/04 10:31:02;;;;;;;13.07;11.98;;;;;;;24.70;43.29;101027.13;4924889;29;19922;-75
2022/09/04 10:33:28;;;;;;;12.95;12.02;;;;;;;25.06;42.82;101034.06;4938901;29;20067;-75
2022/09/04 10:36:13;;;;;;;13.60;12.52;;;;;;;25.43;40.79;101038.16;4924157;29;20622;-75
2022/09/04 10:41:55;;;;;;;14.55;13.38;;;;;;;26.53;39.56;101027.72;4925942;29;20450;-75
2022/09/04 10:44:39;;;;;;;12.40;11.50;;;;;;;26.58;37.95;101028.31;4931103;29;20055;-75
2022/09/04 10:47:23;;;;;;;12.63;11.73;;;;;;;26.80;37.74;101035.91;4928169;29;20051;-75
2022/09/04 10:50:15;;;;;;;13.27;12.20;;;;;;;27.05;36.70;101029.69;4923525;29;20028;-75
2022/09/04 10:53:21;;;;;;;12.07;11.27;;;;;;;27.29;35.97;101019.06;4937116;29;20091;-75
2022/09/04 10:56:04;;;;;;;12.23;11.32;;;;;;;27.40;35.79;101021.03;4926028;29;20534;-76
2022/09/04 10:58:45;;;;;;;14.27;13.27;;;;;;;27.65;35.81;101024.75;4931321;29;20067;-76
2022/09/04 11:01:40;;;;;;;13.65;12.77;;;;;;;27.63;34.96;101027.56;4926216;29;20048;-75
2022/09/04 11:04:15;;;;;;;14.57;13.57;;;;;;;27.83;34.30;101028.06;4924853;29;20044;-76
2022/09/04 11:06:56;;;;;;;13.10;12.13;;;;;;;27.94;34.04;101036.28;4922995;29;20039;-75
2022/09/04 11:09:31;;;;;;;14.48;13.38;;;;;;;28.05;34.57;101028.25;4923150;29;20095;-75
2022/09/04 11:12:22;;;;;;;12.90;12.00;;;;;;;28.21;34.04;101030.72;4924647;29;20704;-75
2022/09/04 11:15:13;;;;;;;12.45;11.65;;;;;;;28.44;33.46;101017.38;4923734;29;20044;-75
2022/09/04 11:18:26;;;;;;;12.73;11.93;;;;;;;28.60;33.40;101026.97;4923898;29;20044;-74
2022/09/04 11:21:19;;;;;;;13.63;12.65;;;;;;;28.68;32.76;101020.97;4925329;29;20554;-75
2022/09/04 11:24:00;;;;;;;12.38;11.57;;;;;;;28.67;33.24;101013.81;4927234;29;20039;-75
2022/09/04 11:26:46;;;;;;;12.38;11.48;;;;;;;28.76;32.76;101007.66;4930145;29;20103;-74
2022/09/04 11:29:48;;;;;;;12.82;11.93;;;;;;;29.01;32.69;101023.00;4929054;29;20075;-75
2022/09/04 11:32:35;;;;;;;13.45;12.57;;;;;;;28.94;32.38;101016.28;4927183;29;20092;-75
2022/09/04 11:35:31;;;;;;;15.05;13.95;;;;;;;28.83;32.89;101014.38;4933498;29;20043;-75
2022/09/04 11:38:01;;;;;;;13.02;12.00;;;;;;;28.94;32.75;101019.00;4929033;29;20032;-75
2022/09/04 11:40:38;;;;;;;13.82;12.82;;;;;;;28.78;31.56;101016.56;4932394;29;20051;-75
2022/09/04 11:43:17;;;;;;;13.35;12.45;;;;;;;28.71;33.08;101018.00;4927187;29;20075;-75
2022/09/04 11:46:04;;;;;;;13.70;12.63;;;;;;;28.89;32.52;101017.63;4926006;29;20083;-75
2022/09/04 11:48:59;;;;;;;14.60;13.60;;;;;;;29.13;31.90;101025.78;4925740;29;20498;-75
2022/09/04 11:52:02;;;;;;;15.05;14.02;;;;;;;29.22;31.09;101025.97;4927212;29;20051;-75
2022/09/04 11:54:46;;;;;;;14.30;13.10;;;;;;;29.17;31.27;101017.28;4928136;29;20036;-75
2022/09/04 11:57:47;;;;;;;15.50;14.40;;;;;;;28.82;32.08;101011.81;4927294;29;20064;-75
2022/09/04 12:00:15;;;;;;;12.68;11.82;;;;;;;28.52;32.84;101020.38;4928671;29;20051;-75
2022/09/04 12:03:05;;;;;;;12.88;11.95;;;;;;;28.37;32.91;101019.59;4925588;29;20566;-75
2022/09/04 12:05:56;;;;;;;13.10;12.00;;;;;;;28.48;32.47;101024.28;4925932;29;20067;-75
2022/09/04 12:09:08;;;;;;;14.55;13.65;;;;;;;28.68;32.52;101018.25;4926294;29;20395;-75
2022/09/04 12:11:52;;;;;;;;;;;;;;;28.98;32.38;101016.94;4928811;29;20443;-75
2022/09/04 12:14:34;;;;;;;13.77;12.70;;;;;;;29.13;31.81;101010.34;4928250;29;20021;-75
2022/09/04 12:17:24;;;;;;;14.50;13.40;;;;;;;29.33;31.03;101010.66;4927345;29;20690;-75
2022/09/04 12:20:29;;;;;;;13.90;13.00;;;;;;;29.19;31.77;101011.75;4941942;29;20036;-75
2022/09/04 12:23:08;;;;;;;15.18;14.18;;;;;;;29.38;30.80;101003.03;4925268;29;20495;-75
2022/09/04 12:26:12;;;;;;;14.45;13.35;;;;;;;29.41;30.54;101008.22;4925532;29;20052;-75
2022/09/04 12:29:11;;;;;;;15.88;14.65;;;;;;;29.64;30.24;101003.69;4924386;29;20130;-76
2022/09/04 12:32:05;;;;;;;14.43;13.52;;;;;;;29.72;30.28;101005.84;4926977;29;20130;-75
2022/09/04 12:35:02;;;;;;;16.35;14.93;;;;;;;29.68;29.77;101011.53;4927165;29;20098;-75
2022/09/04 12:37:59;;;;;;;15.63;14.50;;;;;;;30.00;28.88;101018.09;4928021;29;20044;-75
2022/09/04 12:41:07;;;;;;;16.13;15.07;;;;;;;30.46;28.43;101012.53;4926086;29;20555;-75
2022/09/04 12:44:03;;;;;;;14.90;13.90;;;;;;;30.79;28.48;101006.16;4926913;29;20056;-75
2022/09/04 12:47:25;;;;;;;12.90;12.00;;;;;;;30.80;28.33;101007.00;4925443;29;20407;-75
2022/09/04 12:50:14;;;;;;;14.27;13.43;;;;;;;29.45;29.53;101013.31;4886581;29;20044;-75